Worcester, New York
Current Conditions -  °F | °C
As of 1:35 AM on Friday 19 Dec 2014 (Local Time) from KNY0 Reporting Station
Overcast Overcast  
Wind Chill: 18°   Ceiling: 3700
Heat Index: 27°   Visibility: 10mi
Dew Point: 22°   Wind: 8mph
Humidity: 82%   Direction: 300°WNW
Pressure: 29.95"   Gusts: NA
Location:  42.59°N, 74.75°W
Report Text: KNY0 190635Z AUTO 30007KT 10SM OVC037 M03/M06 A2995 RMK AO2 T10301056
Loading
Personal Weather Stations






























Interactive Weather Map New forecast layout! Learn more

10-Day Weather Forecast

Advertisements
Track Severe Weather on mobile